createdAt,value
2017-06-05T00:00:24.096Z,954.15
2017-06-05T00:01:24.087Z,954.16
2017-06-05T00:02:24.077Z,954.12
2017-06-05T00:03:24.079Z,954.13
2017-06-05T00:04:24.061Z,954.11
2017-06-05T00:05:24.052Z,954.05
2017-06-05T00:06:24.045Z,954.07
2017-06-05T00:07:24.035Z,954.05
2017-06-05T00:08:24.028Z,954.06
2017-06-05T00:09:24.018Z,954.09
2017-06-05T00:10:24.009Z,954.08
2017-06-05T00:11:24.000Z,954.06
2017-06-05T00:12:24.007Z,954.06
2017-06-05T00:13:23.984Z,954.02
2017-06-05T00:14:23.976Z,954.02
2017-06-05T00:15:23.967Z,954.04
2017-06-05T00:16:23.956Z,954
2017-06-05T00:17:23.970Z,953.99
2017-06-05T00:18:23.940Z,953.97
2017-06-05T00:19:23.940Z,953.97
2017-06-05T00:20:23.923Z,953.98
2017-06-05T00:21:23.916Z,953.98
2017-06-05T00:22:23.907Z,954.02
2017-06-05T00:23:23.899Z,954.02
2017-06-05T00:24:23.890Z,954.03
2017-06-05T00:25:23.881Z,954.03
2017-06-05T00:26:23.873Z,953.99
2017-06-05T00:27:23.988Z,954.04
2017-06-05T00:28:23.855Z,954.01
2017-06-05T00:29:23.846Z,954.03
2017-06-05T00:30:23.838Z,954.01
2017-06-05T00:31:23.828Z,954.02
2017-06-05T00:32:23.821Z,954.03
2017-06-05T00:33:23.816Z,954.06
2017-06-05T00:34:23.803Z,954.09
2017-06-05T00:35:23.794Z,954.07
2017-06-05T00:36:23.786Z,954.06
2017-06-05T00:37:23.777Z,954.04
2017-06-05T00:38:23.768Z,954.04
2017-06-05T00:39:23.759Z,954.03
2017-06-05T00:40:23.768Z,954.03
2017-06-05T00:41:23.743Z,954.01
2017-06-05T00:42:23.734Z,954.01
2017-06-05T00:43:23.726Z,954.01
2017-06-05T00:44:23.718Z,954.02
2017-06-05T00:45:23.708Z,954.02
2017-06-05T00:46:23.728Z,954.01
2017-06-05T00:47:23.713Z,954.04
2017-06-05T00:48:23.684Z,954
2017-06-05T00:49:23.675Z,954.02
2017-06-05T00:50:23.664Z,954.03
2017-06-05T00:51:23.657Z,954.03
2017-06-05T00:52:23.649Z,953.97
2017-06-05T00:53:23.639Z,954.03
2017-06-05T00:54:23.630Z,954
2017-06-05T00:55:23.622Z,954.04
2017-06-05T00:56:23.614Z,954.03
2017-06-05T00:57:23.605Z,954.05
2017-06-05T00:58:23.613Z,954.09
2017-06-05T00:59:23.589Z,954.06
2017-06-05T01:00:23.577Z,954.04
2017-06-05T01:01:23.570Z,954.04
2017-06-05T01:02:23.566Z,954.07
2017-06-05T01:03:23.552Z,954.02
2017-06-05T01:04:23.544Z,954.02
2017-06-05T01:05:23.535Z,954.05
2017-06-05T01:06:23.534Z,954.02
2017-06-05T01:07:23.523Z,954.05
2017-06-05T01:08:23.507Z,954.02
2017-06-05T01:09:23.498Z,954.05
2017-06-05T01:10:23.491Z,954.07
2017-06-05T01:11:23.482Z,954.1
2017-06-05T01:12:23.473Z,954.14
2017-06-05T01:13:23.463Z,954.13
2017-06-05T01:14:23.455Z,954.18
2017-06-05T01:15:23.447Z,954.18
2017-06-05T01:16:23.438Z,954.2
2017-06-05T01:17:23.429Z,954.2
2017-06-05T01:18:23.419Z,954.18
2017-06-05T01:19:23.411Z,954.19
2017-06-05T01:20:23.401Z,954.19
2017-06-05T01:21:23.412Z,954.19
2017-06-05T01:22:23.384Z,954.24
2017-06-05T01:23:23.375Z,954.26
2017-06-05T01:24:23.367Z,954.28
2017-06-05T01:25:23.359Z,954.34
2017-06-05T01:26:23.349Z,954.34
2017-06-05T01:27:23.339Z,954.33
2017-06-05T01:28:23.331Z,954.36
2017-06-05T01:29:23.322Z,954.33
2017-06-05T01:30:23.313Z,954.37
2017-06-05T01:31:23.304Z,954.39
2017-06-05T01:32:23.295Z,954.38
2017-06-05T01:33:23.286Z,954.37
2017-06-05T01:34:23.276Z,954.43
2017-06-05T01:35:23.268Z,954.41
2017-06-05T01:36:23.258Z,954.37
2017-06-05T01:37:23.250Z,954.35
2017-06-05T01:38:23.241Z,954.38
2017-06-05T01:39:23.249Z,954.34
2017-06-05T01:40:23.222Z,954.4
2017-06-05T01:41:23.213Z,954.36
2017-06-05T01:42:23.204Z,954.33
2017-06-05T01:43:23.195Z,954.32
2017-06-05T01:44:23.185Z,954.36
2017-06-05T01:45:23.186Z,954.37
2017-06-05T01:46:23.167Z,954.42
2017-06-05T01:47:23.159Z,954.41
2017-06-05T01:48:23.170Z,954.42
2017-06-05T01:49:23.139Z,954.42
2017-06-05T01:50:23.131Z,954.38
2017-06-05T01:51:23.121Z,954.38
2017-06-05T01:52:23.121Z,954.4
2017-06-05T01:53:23.103Z,954.36
2017-06-05T01:54:23.095Z,954.37
2017-06-05T01:55:23.082Z,954.41
2017-06-05T01:56:23.075Z,954.42
2017-06-05T01:57:23.180Z,954.46
2017-06-05T01:58:23.057Z,954.44
2017-06-05T01:59:23.047Z,954.43
2017-06-05T02:00:23.039Z,954.4
2017-06-05T02:01:23.029Z,954.38
2017-06-05T02:02:23.328Z,954.35
2017-06-05T02:03:23.110Z,954.36
2017-06-05T02:04:23.002Z,954.34
2017-06-05T02:05:22.992Z,954.32
2017-06-05T02:06:22.982Z,954.28
2017-06-05T02:07:22.974Z,954.29
2017-06-05T02:08:22.964Z,954.29
2017-06-05T02:09:22.976Z,954.26
2017-06-05T02:10:22.945Z,954.25
2017-06-05T02:11:23.083Z,954.22
2017-06-05T02:12:23.061Z,954.22
2017-06-05T02:13:22.918Z,954.22
2017-06-05T02:14:22.959Z,954.22
2017-06-05T02:15:22.899Z,954.17
2017-06-05T02:16:22.890Z,954.16
2017-06-05T02:17:23.010Z,954.17
2017-06-05T02:18:23.013Z,954.13
2017-06-05T02:19:22.999Z,954.13
2017-06-05T02:20:22.953Z,954.07
2017-06-05T02:21:22.854Z,954.1
2017-06-05T02:22:22.835Z,954.08
2017-06-05T02:23:22.826Z,954.1
2017-06-05T02:24:22.977Z,954.06
2017-06-05T02:25:23.103Z,954.07
2017-06-05T02:26:22.816Z,954.07
2017-06-05T02:27:22.788Z,954.01
2017-06-05T02:28:22.778Z,954.01
2017-06-05T02:29:22.790Z,954.01
2017-06-05T02:30:22.760Z,954.02
2017-06-05T02:31:22.775Z,954.06
2017-06-05T02:32:22.757Z,954.05
2017-06-05T02:33:22.735Z,954.04
2017-06-05T02:34:22.822Z,954.08
2017-06-05T02:35:22.712Z,954.14
2017-06-05T02:36:22.705Z,954.13
2017-06-05T02:37:22.694Z,954.13
2017-06-05T02:38:22.683Z,954.12
2017-06-05T02:39:22.767Z,954.12
2017-06-05T02:40:22.665Z,954.09
2017-06-05T02:41:22.668Z,954.09
2017-06-05T02:42:22.645Z,954.08
2017-06-05T02:43:22.636Z,954.08
2017-06-05T02:44:22.628Z,954.06
2017-06-05T02:45:22.776Z,954.05
2017-06-05T02:46:22.719Z,954.03
2017-06-05T02:47:22.599Z,954.05
2017-06-05T02:48:22.589Z,954.04
2017-06-05T02:49:22.723Z,954.03
2017-06-05T02:50:22.723Z,954.03
2017-06-05T02:51:22.561Z,954.03
2017-06-05T02:52:22.602Z,954.06
2017-06-05T02:53:22.541Z,954.1
2017-06-05T02:54:22.532Z,954.12
2017-06-05T02:55:22.659Z,954.11
2017-06-05T02:56:22.661Z,954.16
2017-06-05T02:57:22.503Z,954.18
2017-06-05T02:58:22.493Z,954.13
2017-06-05T02:59:22.484Z,954.14
2017-06-05T03:00:22.553Z,954.13
2017-06-05T03:01:22.614Z,954.18
2017-06-05T03:02:22.491Z,954.13
2017-06-05T03:03:22.462Z,954.18
2017-06-05T03:04:22.743Z,954.17
2017-06-05T03:05:22.442Z,954.17
2017-06-05T03:06:22.418Z,954.2
2017-06-05T03:07:22.409Z,954.21
2017-06-05T03:08:22.413Z,954.22
2017-06-05T03:09:22.533Z,954.19
2017-06-05T03:10:22.380Z,954.19
2017-06-05T03:11:22.370Z,954.21
2017-06-05T03:12:22.506Z,954.2
2017-06-05T03:13:22.352Z,954.21
2017-06-05T03:14:22.356Z,954.2
2017-06-05T03:15:22.333Z,954.2
2017-06-05T03:16:22.606Z,954.22
2017-06-05T03:17:22.413Z,954.2
2017-06-05T03:18:22.304Z,954.15
2017-06-05T03:19:22.297Z,954.16
2017-06-05T03:20:22.287Z,954.13
2017-06-05T03:21:22.298Z,954.17
2017-06-05T03:22:22.337Z,954.16
2017-06-05T03:23:22.416Z,954.2
2017-06-05T03:24:22.248Z,954.22
2017-06-05T03:25:22.240Z,954.19
2017-06-05T03:26:22.231Z,954.21
2017-06-05T03:27:22.221Z,954.19
2017-06-05T03:28:22.212Z,954.2
2017-06-05T03:29:22.204Z,954.19
2017-06-05T03:30:22.194Z,954.16
2017-06-05T03:31:22.184Z,954.18
2017-06-05T03:32:22.175Z,954.15
2017-06-05T03:33:22.167Z,954.17
2017-06-05T03:34:22.266Z,954.18
2017-06-05T03:35:22.246Z,954.15
2017-06-05T03:36:22.138Z,954.12
2017-06-05T03:37:22.130Z,954.14
2017-06-05T03:38:22.121Z,954.14
2017-06-05T03:39:22.113Z,954.15
2017-06-05T03:40:22.247Z,954.16
2017-06-05T03:41:22.095Z,954.17
2017-06-05T03:42:22.085Z,954.16
2017-06-05T03:43:22.077Z,954.19
2017-06-05T03:44:22.068Z,954.22
2017-06-05T03:45:22.058Z,954.21
2017-06-05T03:46:22.050Z,954.23
2017-06-05T03:47:22.091Z,954.24
2017-06-05T03:48:22.036Z,954.19
2017-06-05T03:49:22.170Z,954.23
2017-06-05T03:50:22.014Z,954.22
2017-06-05T03:51:22.005Z,954.2
2017-06-05T03:52:21.996Z,954.19
2017-06-05T03:53:21.996Z,954.16
2017-06-05T03:54:22.081Z,954.13
2017-06-05T03:55:21.971Z,954.15
2017-06-05T03:56:21.962Z,954.17
2017-06-05T03:57:21.954Z,954.17
2017-06-05T03:58:21.946Z,954.18
2017-06-05T03:59:22.209Z,954.2
2017-06-05T04:00:21.927Z,954.2
2017-06-05T04:01:21.920Z,954.21
2017-06-05T04:02:21.919Z,954.22
2017-06-05T04:03:21.903Z,954.2
2017-06-05T04:04:22.036Z,954.23
2017-06-05T04:05:22.143Z,954.23
2017-06-05T04:06:21.877Z,954.28
2017-06-05T04:07:21.870Z,954.27
2017-06-05T04:08:21.872Z,954.22
2017-06-05T04:09:22.009Z,954.2
2017-06-05T04:10:22.006Z,954.2
2017-06-05T04:11:21.836Z,954.17
2017-06-05T04:12:21.829Z,954.22
2017-06-05T04:13:21.950Z,954.2
2017-06-05T04:14:21.949Z,954.19
2017-06-05T04:15:21.806Z,954.16
2017-06-05T04:16:21.810Z,954.19
2017-06-05T04:17:21.788Z,954.22
2017-06-05T04:18:21.901Z,954.23
2017-06-05T04:19:21.802Z,954.26
2017-06-05T04:20:21.765Z,954.26
2017-06-05T04:21:21.833Z,954.23
2017-06-05T04:22:21.764Z,954.25
2017-06-05T04:23:21.741Z,954.29
2017-06-05T04:24:21.735Z,954.28
2017-06-05T04:25:21.726Z,954.27
2017-06-05T04:26:21.719Z,954.29
2017-06-05T04:27:21.710Z,954.29
2017-06-05T04:28:21.701Z,954.31
2017-06-05T04:29:21.693Z,954.29
2017-06-05T04:30:21.687Z,954.3
2017-06-05T04:31:21.770Z,954.29
2017-06-05T04:32:21.809Z,954.3
2017-06-05T04:33:21.663Z,954.31
2017-06-05T04:34:21.655Z,954.31
2017-06-05T04:35:21.648Z,954.27
2017-06-05T04:36:21.640Z,954.32
2017-06-05T04:37:21.677Z,954.26
2017-06-05T04:38:21.628Z,954.28
2017-06-05T04:39:21.755Z,954.25
2017-06-05T04:40:21.611Z,954.22
2017-06-05T04:41:21.654Z,954.24
2017-06-05T04:42:21.611Z,954.25
2017-06-05T04:43:21.701Z,954.22
2017-06-05T04:44:21.718Z,954.25
2017-06-05T04:45:21.581Z,954.3
2017-06-05T04:46:21.567Z,954.23
2017-06-05T04:47:21.560Z,954.28
2017-06-05T04:48:21.552Z,954.3
2017-06-05T04:49:21.546Z,954.32
2017-06-05T04:50:21.618Z,954.28
2017-06-05T04:51:21.532Z,954.35
2017-06-05T04:52:21.525Z,954.27
2017-06-05T04:53:21.518Z,954.26
2017-06-05T04:54:21.512Z,954.28
2017-06-05T04:55:21.684Z,954.27
2017-06-05T04:56:21.604Z,954.24
2017-06-05T04:57:21.492Z,954.21
2017-06-05T04:58:21.485Z,954.23
2017-06-05T04:59:21.528Z,954.22
2017-06-05T05:00:21.473Z,954.25
2017-06-05T05:01:21.466Z,954.21
2017-06-05T05:02:21.460Z,954.23
2017-06-05T05:03:21.477Z,954.23
2017-06-05T05:04:21.452Z,954.2
2017-06-05T05:05:21.441Z,954.26
2017-06-05T05:06:21.436Z,954.22
2017-06-05T05:07:21.447Z,954.22
2017-06-05T05:08:21.424Z,954.23
2017-06-05T05:09:21.418Z,954.2
2017-06-05T05:10:21.413Z,954.16
2017-06-05T05:11:21.441Z,954.18
2017-06-05T05:12:21.401Z,954.18
2017-06-05T05:13:21.395Z,954.19
2017-06-05T05:14:21.392Z,954.16
2017-06-05T05:15:21.384Z,954.18
2017-06-05T05:16:21.529Z,954.2
2017-06-05T05:17:21.484Z,954.19
2017-06-05T05:18:21.369Z,954.24
2017-06-05T05:19:21.365Z,954.24
2017-06-05T05:20:21.378Z,954.23
2017-06-05T05:21:21.352Z,954.24
2017-06-05T05:22:21.347Z,954.27
2017-06-05T05:23:21.343Z,954.26
2017-06-05T05:24:21.367Z,954.24
2017-06-05T05:25:21.338Z,954.21
2017-06-05T05:26:21.328Z,954.21
2017-06-05T05:27:21.401Z,954.21
2017-06-05T05:28:21.350Z,954.22
2017-06-05T05:29:21.314Z,954.26
2017-06-05T05:30:21.328Z,954.24
2017-06-05T05:31:21.305Z,954.26
2017-06-05T05:32:21.311Z,954.19
2017-06-05T05:33:21.296Z,954.24
2017-06-05T05:34:21.293Z,954.24
2017-06-05T05:35:21.299Z,954.23
2017-06-05T05:36:21.283Z,954.22
2017-06-05T05:37:21.279Z,954.19
2017-06-05T05:38:21.275Z,954.19
2017-06-05T05:39:21.288Z,954.17
2017-06-05T05:40:21.266Z,954.16
2017-06-05T05:41:21.262Z,954.12
2017-06-05T05:42:21.278Z,954.16
2017-06-05T05:43:21.254Z,954.12
2017-06-05T05:44:21.252Z,954.12
2017-06-05T05:45:21.247Z,954.19
2017-06-05T05:46:21.246Z,954.21
2017-06-05T05:47:21.241Z,954.18
2017-06-05T05:48:21.237Z,954.19
2017-06-05T05:49:21.238Z,954.19
2017-06-05T05:50:21.228Z,954.15
2017-06-05T05:51:21.226Z,954.11
2017-06-05T05:52:21.222Z,954.1
2017-06-05T05:53:21.218Z,954.14
2017-06-05T05:54:21.217Z,954.17
2017-06-05T05:55:21.214Z,954.18
2017-06-05T05:56:21.210Z,954.21
2017-06-05T05:57:21.206Z,954.18
2017-06-05T05:58:21.203Z,954.22
2017-06-05T05:59:21.201Z,954.19
2017-06-05T06:00:21.196Z,954.2
2017-06-05T06:01:21.193Z,954.18
2017-06-05T06:02:21.190Z,954.17
2017-06-05T06:03:21.189Z,954.2
2017-06-05T06:04:21.185Z,954.19
2017-06-05T06:05:21.182Z,954.16
2017-06-05T06:06:21.178Z,954.16
2017-06-05T06:07:21.177Z,954.14
2017-06-05T06:08:21.173Z,954.16
2017-06-05T06:09:21.171Z,954.18
2017-06-05T06:10:21.168Z,954.18
2017-06-05T06:11:21.167Z,954.17
2017-06-05T06:12:21.164Z,954.15
2017-06-05T06:13:21.182Z,954.17
2017-06-05T06:14:21.158Z,954.17
2017-06-05T06:15:21.155Z,954.12
2017-06-05T06:16:21.157Z,954.14
2017-06-05T06:17:21.178Z,954.12
2017-06-05T06:18:21.198Z,954.1
2017-06-05T06:19:21.177Z,954.12
2017-06-05T06:20:21.149Z,954.07
2017-06-05T06:21:21.174Z,954.06
2017-06-05T06:22:21.274Z,954.01
2017-06-05T06:23:21.139Z,954.08
2017-06-05T06:24:21.137Z,954.05
2017-06-05T06:25:21.164Z,954.08
2017-06-05T06:26:21.132Z,954.12
2017-06-05T06:27:21.150Z,954.12
2017-06-05T06:28:21.178Z,954.1
2017-06-05T06:29:21.151Z,954.11
2017-06-05T06:30:21.125Z,954.16
2017-06-05T06:31:21.159Z,954.11
2017-06-05T06:32:21.162Z,954.12
2017-06-05T06:33:21.129Z,954.13
2017-06-05T06:34:21.156Z,954.13
2017-06-05T06:35:21.150Z,954.11
2017-06-05T06:36:21.116Z,954.08
2017-06-05T06:37:21.132Z,954.07
2017-06-05T06:38:21.138Z,954.09
2017-06-05T06:39:21.161Z,954.07
2017-06-05T06:40:21.148Z,954.11
2017-06-05T06:41:21.128Z,954.09
2017-06-05T06:42:21.109Z,954.06
2017-06-05T06:43:21.147Z,954.08
2017-06-05T06:44:21.124Z,954.08
2017-06-05T06:45:21.163Z,954.13
2017-06-05T06:46:21.143Z,954.09
2017-06-05T06:47:21.165Z,954.06
2017-06-05T06:48:21.233Z,954.07
2017-06-05T06:49:21.149Z,954.08
2017-06-05T06:50:21.099Z,954.08
2017-06-05T06:51:21.140Z,954.1
2017-06-05T06:52:21.147Z,954.1
2017-06-05T06:53:21.151Z,954.15
2017-06-05T06:54:21.120Z,954.1
2017-06-05T06:55:21.140Z,954.1
2017-06-05T06:56:21.110Z,954.1
2017-06-05T06:57:21.135Z,954.09
2017-06-05T06:58:21.095Z,954.14
2017-06-05T06:59:21.096Z,954.14
2017-06-05T07:00:21.092Z,954.16
2017-06-05T07:01:21.144Z,954.14
2017-06-05T07:02:21.111Z,954.13
2017-06-05T07:03:21.137Z,954.15
2017-06-05T07:04:21.119Z,954.12
2017-06-05T07:05:21.115Z,954.15
2017-06-05T07:06:21.089Z,954.18
2017-06-05T07:07:21.133Z,954.18
2017-06-05T07:08:21.101Z,954.16
2017-06-05T07:09:21.092Z,954.2
2017-06-05T07:10:21.113Z,954.19
2017-06-05T07:11:21.089Z,954.2
2017-06-05T07:12:21.126Z,954.2
2017-06-05T07:13:21.125Z,954.21
2017-06-05T07:14:21.158Z,954.24
2017-06-05T07:15:21.123Z,954.22
2017-06-05T07:16:21.090Z,954.2
2017-06-05T07:17:21.084Z,954.22
2017-06-05T07:18:21.095Z,954.2
2017-06-05T07:19:21.132Z,954.18
2017-06-05T07:20:21.082Z,954.19
2017-06-05T07:21:21.100Z,954.24
2017-06-05T07:22:21.082Z,954.15
2017-06-05T07:23:21.083Z,954.22
2017-06-05T07:24:21.082Z,954.2
2017-06-05T07:25:21.085Z,954.2
2017-06-05T07:26:21.089Z,954.17
2017-06-05T07:27:21.081Z,954.25
2017-06-05T07:28:21.081Z,954.23
2017-06-05T07:29:21.082Z,954.24
2017-06-05T07:30:21.081Z,954.27
2017-06-05T07:31:21.084Z,954.28
2017-06-05T07:32:21.081Z,954.27
2017-06-05T07:33:21.084Z,954.31
2017-06-05T07:34:21.083Z,954.31
2017-06-05T07:35:21.084Z,954.31
2017-06-05T07:36:21.101Z,954.3
2017-06-05T07:37:21.084Z,954.28
2017-06-05T07:38:21.084Z,954.28
2017-06-05T07:39:21.090Z,954.24
2017-06-05T07:40:21.086Z,954.25
2017-06-05T07:41:21.089Z,954.23
2017-06-05T07:42:21.089Z,954.19
2017-06-05T07:43:21.088Z,954.23
2017-06-05T07:44:21.090Z,954.27
2017-06-05T07:45:21.092Z,954.24
2017-06-05T07:46:21.092Z,954.25
2017-06-05T07:47:21.094Z,954.26
2017-06-05T07:48:21.095Z,954.27
2017-06-05T07:49:21.098Z,954.24
2017-06-05T07:50:21.097Z,954.21
2017-06-05T07:51:21.101Z,954.24
2017-06-05T07:52:21.101Z,954.19
2017-06-05T07:53:21.103Z,954.17
2017-06-05T07:54:21.117Z,954.16
2017-06-05T07:55:21.108Z,954.14
2017-06-05T07:56:21.110Z,954.12
2017-06-05T07:57:21.111Z,954.13
2017-06-05T07:58:21.112Z,954.12
2017-06-05T07:59:21.115Z,954.08
2017-06-05T08:00:21.118Z,954.1
2017-06-05T08:01:21.118Z,954.07
2017-06-05T08:02:21.121Z,954.06
2017-06-05T08:03:21.123Z,954.08
2017-06-05T08:04:21.134Z,954.07
2017-06-05T08:05:21.129Z,954.05
2017-06-05T08:06:21.129Z,954.01
2017-06-05T08:07:21.133Z,954.03
2017-06-05T08:08:21.134Z,954.05
2017-06-05T08:09:21.137Z,954.05
2017-06-05T08:10:21.139Z,954.03
2017-06-05T08:11:21.148Z,954.03
2017-06-05T08:12:21.142Z,954.02
2017-06-05T08:13:21.163Z,954.03
2017-06-05T08:14:21.146Z,953.99
2017-06-05T08:15:21.146Z,953.99
2017-06-05T08:16:21.153Z,953.98
2017-06-05T08:17:21.150Z,953.98
2017-06-05T08:18:21.153Z,953.98
2017-06-05T08:19:21.166Z,954.01
2017-06-05T08:20:21.154Z,954.01
2017-06-05T08:21:21.157Z,954.01
2017-06-05T08:22:21.156Z,954.01
2017-06-05T08:23:21.157Z,953.99
2017-06-05T08:24:21.163Z,954.01
2017-06-05T08:25:21.164Z,954
2017-06-05T08:26:21.160Z,954.03
2017-06-05T08:27:21.163Z,953.99
2017-06-05T08:28:21.163Z,954.01
2017-06-05T08:29:21.164Z,953.99
2017-06-05T08:30:21.164Z,953.96
2017-06-05T08:31:21.166Z,953.96
2017-06-05T08:32:21.180Z,954
2017-06-05T08:33:21.166Z,954.02
2017-06-05T08:34:21.174Z,954.02
2017-06-05T08:35:21.168Z,954.01
2017-06-05T08:36:21.169Z,953.99
2017-06-05T08:37:21.169Z,954.08
2017-06-05T08:38:21.169Z,954.04
2017-06-05T08:39:21.170Z,954
2017-06-05T08:40:21.173Z,953.96
2017-06-05T08:41:21.173Z,953.97
2017-06-05T08:42:21.175Z,953.93
2017-06-05T08:43:21.176Z,953.94
2017-06-05T08:44:21.175Z,953.97
2017-06-05T08:45:21.176Z,953.93
2017-06-05T08:46:21.178Z,953.97
2017-06-05T08:47:21.189Z,953.92
2017-06-05T08:48:21.209Z,953.88
2017-06-05T08:49:21.179Z,953.85
2017-06-05T08:50:21.180Z,953.86
2017-06-05T08:51:21.180Z,953.84
2017-06-05T08:52:21.182Z,953.8
2017-06-05T08:53:21.182Z,953.82
2017-06-05T08:54:21.183Z,953.82
2017-06-05T08:55:21.183Z,953.82
2017-06-05T08:56:21.183Z,953.87
2017-06-05T08:57:21.186Z,953.85
2017-06-05T08:58:21.203Z,953.85
2017-06-05T08:59:21.188Z,953.82
2017-06-05T09:00:21.186Z,953.78
2017-06-05T09:01:21.190Z,953.84
2017-06-05T09:02:21.193Z,953.85
2017-06-05T09:03:21.187Z,953.82
2017-06-05T09:04:21.190Z,953.79
2017-06-05T09:05:21.188Z,953.81
2017-06-05T09:06:21.195Z,953.82
2017-06-05T09:07:21.190Z,953.79
2017-06-05T09:08:21.191Z,953.82
2017-06-05T09:09:21.191Z,953.74
2017-06-05T09:10:21.190Z,953.65
2017-06-05T09:11:21.191Z,953.73
2017-06-05T09:12:21.191Z,953.7
2017-06-05T09:13:21.192Z,953.69
2017-06-05T09:14:21.223Z,953.69
2017-06-05T09:15:21.193Z,953.71
2017-06-05T09:16:21.194Z,953.68
2017-06-05T09:17:21.192Z,953.69
2017-06-05T09:18:21.195Z,953.72
2017-06-05T09:19:21.194Z,953.73
2017-06-05T09:20:21.197Z,953.7
2017-06-05T09:21:21.201Z,953.73
2017-06-05T09:22:21.197Z,953.73
2017-06-05T09:23:21.198Z,953.76
2017-06-05T09:24:21.197Z,953.72
2017-06-05T09:25:21.222Z,953.7
2017-06-05T09:26:21.200Z,953.67
2017-06-05T09:27:21.202Z,953.71
2017-06-05T09:28:21.202Z,953.68
2017-06-05T09:29:21.203Z,953.65
2017-06-05T09:30:21.203Z,953.66
2017-06-05T09:31:21.205Z,953.65
2017-06-05T09:32:21.204Z,953.64
2017-06-05T09:33:21.207Z,953.66
2017-06-05T09:34:21.209Z,953.69
2017-06-05T09:35:21.209Z,953.66
2017-06-05T09:36:21.209Z,953.63
2017-06-05T09:37:21.212Z,953.64
2017-06-05T09:38:21.214Z,953.67
2017-06-05T09:39:21.213Z,953.69
2017-06-05T09:40:21.247Z,953.66
2017-06-05T09:41:21.216Z,953.6
2017-06-05T09:42:21.219Z,953.59
2017-06-05T09:43:21.222Z,953.6
2017-06-05T09:44:21.237Z,953.58
2017-06-05T09:45:21.223Z,953.57
2017-06-05T09:46:21.248Z,953.57
2017-06-05T09:47:21.226Z,953.54
2017-06-05T09:48:21.227Z,953.54
2017-06-05T09:49:21.231Z,953.6
2017-06-05T09:50:21.231Z,953.55
2017-06-05T09:51:21.234Z,953.48
2017-06-05T09:52:21.235Z,953.53
2017-06-05T09:53:21.238Z,953.54
2017-06-05T09:54:21.241Z,953.55
2017-06-05T09:55:21.242Z,953.55
2017-06-05T09:56:21.243Z,953.54
2017-06-05T09:57:21.244Z,953.5
2017-06-05T09:58:21.246Z,953.49
2017-06-05T09:59:21.248Z,953.47
2017-06-05T10:00:21.250Z,953.47
2017-06-05T10:01:21.250Z,953.5
2017-06-05T10:02:21.252Z,953.49
2017-06-05T10:03:21.258Z,953.45
2017-06-05T10:04:21.257Z,953.41
2017-06-05T10:05:21.260Z,953.39
2017-06-05T10:06:21.268Z,953.41
2017-06-05T10:07:21.282Z,953.36
2017-06-05T10:08:21.266Z,953.33
2017-06-05T10:09:21.270Z,953.3
2017-06-05T10:10:21.270Z,953.35
2017-06-05T10:11:21.272Z,953.32
2017-06-05T10:12:21.273Z,953.31
2017-06-05T10:13:21.276Z,953.29
2017-06-05T10:14:21.278Z,953.29
2017-06-05T10:15:21.280Z,953.3
2017-06-05T10:16:21.283Z,953.27
2017-06-05T10:17:21.285Z,953.29
2017-06-05T10:18:21.286Z,953.29
2017-06-05T10:19:21.288Z,953.27
2017-06-05T10:20:21.290Z,953.28
2017-06-05T10:21:21.293Z,953.24
2017-06-05T10:22:21.295Z,953.26
2017-06-05T10:23:21.296Z,953.22
2017-06-05T10:24:21.300Z,953.22
2017-06-05T10:25:21.301Z,953.21
2017-06-05T10:26:21.304Z,953.17
2017-06-05T10:27:21.327Z,953.18
2017-06-05T10:28:21.307Z,953.18
2017-06-05T10:29:21.310Z,953.17
2017-06-05T10:30:21.312Z,953.15
2017-06-05T10:31:21.315Z,953.13
2017-06-05T10:32:21.317Z,953.15
2017-06-05T10:33:21.320Z,953.1
2017-06-05T10:34:21.335Z,953.05
2017-06-05T10:35:21.326Z,953.04
2017-06-05T10:36:21.328Z,953.05
2017-06-05T10:37:21.330Z,953.01
2017-06-05T10:38:21.333Z,953.05
2017-06-05T10:39:21.335Z,953.03
2017-06-05T10:40:21.338Z,953.04
2017-06-05T10:41:21.340Z,953
2017-06-05T10:42:21.357Z,953.03
2017-06-05T10:43:21.344Z,952.98
2017-06-05T10:44:21.349Z,953.04
2017-06-05T10:45:21.349Z,953.01
2017-06-05T10:46:21.429Z,952.98
2017-06-05T10:47:21.400Z,953
2017-06-05T10:48:21.376Z,953.01
2017-06-05T10:49:21.360Z,952.91
2017-06-05T10:50:21.375Z,952.93
2017-06-05T10:51:21.390Z,952.88
2017-06-05T10:52:21.397Z,952.93
2017-06-05T10:53:21.385Z,952.92
2017-06-05T10:54:21.397Z,952.9
2017-06-05T10:55:21.397Z,952.93
2017-06-05T10:56:21.405Z,952.9
2017-06-05T10:57:21.399Z,952.91
2017-06-05T10:58:21.407Z,952.86
2017-06-05T10:59:21.423Z,952.86
2017-06-05T11:00:21.417Z,952.84
2017-06-05T11:01:21.423Z,952.84
2017-06-05T11:02:21.452Z,952.84
2017-06-05T11:03:21.403Z,952.85
2017-06-05T11:04:21.404Z,952.8
2017-06-05T11:05:21.424Z,952.83
2017-06-05T11:06:21.415Z,952.77
2017-06-05T11:07:21.439Z,952.78
2017-06-05T11:08:21.440Z,952.7
2017-06-05T11:09:21.431Z,952.72
2017-06-05T11:10:21.449Z,952.72
2017-06-05T11:11:21.442Z,952.76
2017-06-05T11:12:21.526Z,952.7
2017-06-05T11:13:21.455Z,952.74
2017-06-05T11:14:21.469Z,952.76
2017-06-05T11:15:21.460Z,952.71
2017-06-05T11:16:21.489Z,952.69
2017-06-05T11:17:21.445Z,952.65
2017-06-05T11:18:21.470Z,952.7
2017-06-05T11:19:21.450Z,952.66
2017-06-05T11:20:21.483Z,952.68
2017-06-05T11:21:21.493Z,952.66
2017-06-05T11:22:21.464Z,952.64
2017-06-05T11:23:21.531Z,952.63
2017-06-05T11:24:21.468Z,952.61
2017-06-05T11:25:21.526Z,952.56
2017-06-05T11:26:21.477Z,952.55
2017-06-05T11:27:21.500Z,952.55
2017-06-05T11:28:21.498Z,952.58
2017-06-05T11:29:21.500Z,952.59
2017-06-05T11:30:21.508Z,952.59
2017-06-05T11:31:21.532Z,952.55
2017-06-05T11:32:21.524Z,952.59
2017-06-05T11:33:21.496Z,952.58
2017-06-05T11:34:21.499Z,952.56
2017-06-05T11:35:21.551Z,952.55
2017-06-05T11:36:21.518Z,952.5
2017-06-05T11:37:21.508Z,952.54
2017-06-05T11:38:21.525Z,952.5
2017-06-05T11:39:21.547Z,952.56
2017-06-05T11:40:21.533Z,952.53
2017-06-05T11:41:21.542Z,952.55
2017-06-05T11:42:21.532Z,952.51
2017-06-05T11:43:21.569Z,952.52
2017-06-05T11:44:21.539Z,952.56
2017-06-05T11:45:21.539Z,952.52
2017-06-05T11:46:21.568Z,952.5
2017-06-05T11:47:21.556Z,952.47
2017-06-05T11:48:21.580Z,952.5
2017-06-05T11:49:21.584Z,952.45
2017-06-05T11:50:21.590Z,952.47
2017-06-05T11:51:21.581Z,952.42
2017-06-05T11:52:21.561Z,952.42
2017-06-05T11:53:21.898Z,952.39
2017-06-05T11:54:21.605Z,952.4
2017-06-05T11:55:21.585Z,952.44
2017-06-05T11:56:21.648Z,952.39
2017-06-05T11:57:23.128Z,952.42
2017-06-05T11:58:24.404Z,952.37
2017-06-05T11:59:21.583Z,952.37
2017-06-05T12:00:21.628Z,952.38
2017-06-05T12:01:21.679Z,952.36
2017-06-05T12:02:21.625Z,952.33
2017-06-05T12:03:21.650Z,952.32
2017-06-05T12:04:21.596Z,952.33
2017-06-05T12:05:21.642Z,952.36
2017-06-05T12:06:21.621Z,952.32
2017-06-05T12:07:21.644Z,952.3
2017-06-05T12:08:21.694Z,952.3
2017-06-05T12:09:21.644Z,952.27
2017-06-05T12:10:21.633Z,952.29
2017-06-05T12:11:21.687Z,952.27
2017-06-05T12:12:21.643Z,952.24
2017-06-05T12:13:21.633Z,952.27
2017-06-05T12:14:21.645Z,952.27
2017-06-05T12:15:21.648Z,952.25
2017-06-05T12:16:21.680Z,952.2
2017-06-05T12:17:21.647Z,952.26
2017-06-05T12:18:21.652Z,952.22
2017-06-05T12:19:21.637Z,952.24
2017-06-05T12:20:21.712Z,952.29
2017-06-05T12:21:21.703Z,952.26
2017-06-05T12:22:21.715Z,952.25
2017-06-05T12:23:21.711Z,952.24
2017-06-05T12:24:21.656Z,952.2
2017-06-05T12:25:21.670Z,952.21
2017-06-05T12:26:21.679Z,952.17
2017-06-05T12:27:21.697Z,952.17
2017-06-05T12:28:21.677Z,952.18
2017-06-05T12:29:22.420Z,952.16
2017-06-05T12:30:21.682Z,952.18
2017-06-05T12:31:21.716Z,952.18